Nassau (NAS/MYNN)

Information

Location
Nassau, Bahamas
Local Time
13:37 / 1:37 pm
GMT Time
18:37 / 6:37 pm
Gates
Unassigned
No FAA reported delays
METAR MYNN 191800Z 18010KT 9999 SCT018 SCT040 BKN220 28/21 A3007
TAF MYNN 191700Z 1918/2018 22010KT 5000 SHRA SCT018CB SCT045 BKN220 BECMG 2000/2002 36010KT 9999 SCT018 BKN045 BKN100
  • No charts available